Latest Weather Observations for Busselton Jetty

IDW60801

Issued at 9:43 am WST Tuesday 16 August 2022 (issued every 10 minutes, with the page automatically refreshed every 10 minutes)

About weather observations | Map of weather stations | Latest weather observations for WA | Other Formats
Station Details ID: 009937 Name: BUSSELTON JETTY Lat: -33.63 Lon: 115.34 Height: 3.0 m
Data from the previous 72 hours. | See also: Recent months at Busselton Jetty
Date/Time
WST
Temp
°C
App
Temp
°C
Dew
Point
°C
Rel
Hum
%
Delta-T
°C
Wind Press
QNH
hPa
Press
MSL
hPa
Rain since
9am
mm
Dir  Spd
km/h
Gust
km/h
Spd
kts
Gust
kts
16/09:30am - - - - - W 37 48 20 26 - - -
16/09:00am - - - - - WNW 33 39 18 21 - - -
16/08:30am - - - - - WNW 39 54 21 29 - - -
16/08:24am - - - - - WNW 33 50 18 27 - - -
16/08:00am - - - - - WNW 37 44 20 24 - - -
16/07:30am - - - - - W 35 43 19 23 - - -
16/07:00am - - - - - W 33 39 18 21 - - -
16/06:30am - - - - - W 35 43 19 23 - - -
16/06:00am - - - - - WNW 30 35 16 19 - - -
16/05:30am - - - - - W 32 37 17 20 - - -
16/05:00am - - - - - W 30 33 16 18 - - -
16/04:30am - - - - - WNW 32 35 17 19 - - -
16/04:00am - - - - - W 32 39 17 21 - - -
16/03:30am - - - - - W 35 44 19 24 - - -
16/03:00am - - - - - W 39 50 21 27 - - -
16/02:33am - - - - - WNW 30 54 16 29 - - -
16/02:30am - - - - - WNW 28 32 15 17 - - -
16/02:00am - - - - - WNW 30 33 16 18 - - -
16/01:30am - - - - - WNW 30 35 16 19 - - -
16/01:00am - - - - - NW 35 41 19 22 - - -
16/12:45am - - - - - NNW 43 50 23 27 - - -
16/12:30am - - - - - N 41 50 22 27 - - -
16/12:00am - - - - - N 41 48 22 26 - - -
 
Date/Time
WST
Temp
°C
App
Temp
°C
Dew
Point
°C
Rel
Hum
%
Delta-T
°C
Wind Press
QNH
hPa
Press
MSL
hPa
Rain since
9am
mm
Dir  Spd
km/h
Gust
km/h
Spd
kts
Gust
kts
15/11:30pm - - - - - NNE 43 48 23 26 - - -
15/11:00pm - - - - - NNE 39 46 21 25 - - -
15/10:30pm - - - - - NE 32 39 17 21 - - -
15/10:00pm - - - - - NE 28 32 15 17 - - -
15/09:30pm - - - - - NNE 24 28 13 15 - - -
15/09:00pm - - - - - N 24 28 13 15 - - -
15/08:30pm - - - - - NNE 26 30 14 16 - - -
15/08:00pm - - - - - NNE 26 28 14 15 - - -
15/07:30pm - - - - - NE 17 19 9 10 - - -
15/07:00pm - - - - - NE 22 28 12 15 - - -
15/06:30pm - - - - - ENE 19 22 10 12 - - -
15/06:00pm - - - - - NE 17 17 9 9 - - -
15/05:30pm - - - - - NNE 19 22 10 12 - - -
15/05:00pm - - - - - NE 24 26 13 14 - - -
15/04:30pm - - - - - NE 19 20 10 11 - - -
15/04:00pm - - - - - NNE 20 24 11 13 - - -
15/03:30pm - - - - - NNE 22 26 12 14 - - -
15/03:00pm - - - - - NNE 26 30 14 16 - - -
15/02:30pm - - - - - NNE 30 32 16 17 - - -
15/02:00pm - - - - - NNE 28 32 15 17 - - -
15/01:30pm - - - - - N 26 30 14 16 - - -
15/01:00pm - - - - - N 28 30 15 16 - - -
15/12:30pm - - - - - N 30 33 16 18 - - -
15/12:00pm - - - - - N 30 33 16 18 - - -
15/11:30am - - - - - N 32 37 17 20 - - -
15/11:00am - - - - - NNE 33 39 18 21 - - -
15/10:30am - - - - - NNE 35 39 19 21 - - -
15/10:00am - - - - - NNE 35 41 19 22 - - -
15/09:30am - - - - - NNE 35 41 19 22 - - -
15/09:00am - - - - - NE 33 41 18 22 - - -
15/08:30am - - - - - NE 33 37 18 20 - - -
15/08:00am - - - - - NE 37 43 20 23 - - -
15/07:30am - - - - - NE 37 41 20 22 - - -
15/07:00am - - - - - NE 35 41 19 22 - - -
15/06:30am - - - - - NE 41 48 22 26 - - -
15/06:00am - - - - - NE 39 44 21 24 - - -
15/05:30am - - - - - NNE 41 48 22 26 - - -
15/05:00am - - - - - NNE 37 44 20 24 - - -
15/04:30am - - - - - NNE 35 41 19 22 - - -
15/04:00am - - - - - NE 28 37 15 20 - - -
15/03:30am - - - - - ENE 20 26 11 14 - - -
15/03:00am - - - - - ENE 17 20 9 11 - - -
15/02:30am - - - - - E 17 19 9 10 - - -
15/02:00am - - - - - ENE 17 19 9 10 - - -
15/01:30am - - - - - ENE 19 20 10 11 - - -
15/01:00am - - - - - ENE 19 20 10 11 - - -
15/12:30am - - - - - NE 17 19 9 10 - - -
15/12:00am - - - - - NE 19 20 10 11 - - -
 
Date/Time
WST
Temp
°C
App
Temp
°C
Dew
Point
°C
Rel
Hum
%
Delta-T
°C
Wind Press
QNH
hPa
Press
MSL
hPa
Rain since
9am
mm
Dir  Spd
km/h
Gust
km/h
Spd
kts
Gust
kts
14/11:30pm - - - - - ENE 19 20 10 11 - - -
14/11:00pm - - - - - NE 17 19 9 10 - - -
14/10:30pm - - - - - NE 17 19 9 10 - - -
14/10:00pm - - - - - ENE 19 20 10 11 - - -
14/09:30pm - - - - - NE 20 26 11 14 - - -
14/09:00pm - - - - - NNE 17 19 9 10 - - -
14/08:30pm - - - - - NNE 17 19 9 10 - - -
14/08:00pm - - - - - NNE 19 20 10 11 - - -
14/07:30pm - - - - - N 19 20 10 11 - - -
14/07:00pm - - - - - N 19 22 10 12 - - -
14/06:30pm - - - - - NE 19 19 10 10 - - -
14/06:00pm - - - - - NE 19 19 10 10 - - -
14/05:30pm - - - - - NNE 19 22 10 12 - - -
14/05:00pm - - - - - NE 20 24 11 13 - - -
14/04:30pm - - - - - NE 20 26 11 14 - - -
14/04:00pm - - - - - NNE 17 20 9 11 - - -
14/03:30pm - - - - - NE 15 17 8 9 - - -
14/03:00pm - - - - - NE 17 19 9 10 - - -
14/02:30pm - - - - - NE 19 19 10 10 - - -
14/02:00pm - - - - - NE 17 19 9 10 - - -
14/01:30pm - - - - - NE 17 19 9 10 - - -
14/01:00pm - - - - - NE 19 20 10 11 - - -
14/12:30pm - - - - - NNE 17 19 9 10 - - -
14/12:00pm - - - - - NNE 15 17 8 9 - - -
14/11:30am - - - - - NNE 17 17 9 9 - - -
14/11:00am - - - - - NNE 13 15 7 8 - - -
14/10:30am - - - - - NE 13 15 7 8 - - -
14/10:00am - - - - - E 11 11 6 6 - - -
14/09:30am - - - - - ESE 9 11 5 6 - - -
14/09:00am - - - - - SSW 11 15 6 8 - - -
14/08:30am - - - - - SE 11 17 6 9 - - -
14/08:00am - - - - - ESE 11 11 6 6 - - -
14/07:30am - - - - - ESE 11 13 6 7 - - -
14/07:00am - - - - - E 9 11 5 6 - - -
14/06:30am - - - - - ESE 7 9 4 5 - - -
14/06:00am - - - - - SE 7 9 4 5 - - -
14/05:30am - - - - - SSE 9 11 5 6 - - -
14/05:00am - - - - - S 9 11 5 6 - - -
14/04:30am - - - - - S 9 11 5 6 - - -
14/04:00am - - - - - WSW 13 13 7 7 - - -
14/03:30am - - - - - WSW 13 17 7 9 - - -
14/03:00am - - - - - WSW 15 17 8 9 - - -
14/02:30am - - - - - W 15 17 8 9 - - -
14/02:00am - - - - - WSW 11 15 6 8 - - -
14/01:30am - - - - - W 17 19 9 10 - - -
14/01:00am - - - - - WSW 15 17 8 9 - - -
14/12:30am - - - - - W 19 24 10 13 - - -
14/12:00am - - - - - W 20 22 11 12 - - -
 
Date/Time
WST
Temp
°C
App
Temp
°C
Dew
Point
°C
Rel
Hum
%
Delta-T
°C
Wind Press
QNH
hPa
Press
MSL
hPa
Rain since
9am
mm
Dir  Spd
km/h
Gust
km/h
Spd
kts
Gust
kts
13/11:30pm - - - - - WSW 20 22 11 12 - - -
13/11:00pm - - - - - W 28 32 15 17 - - -
13/10:30pm - - - - - WSW 24 28 13 15 - - -
13/10:00pm - - - - - WSW 7 9 4 5 - - -
13/09:30pm - - - - - SW 22 28 12 15 - - -
13/09:00pm - - - - - WSW 35 41 19 22 - - -
13/08:30pm - - - - - WSW 30 35 16 19 - - -
13/08:00pm - - - - - WSW 28 33 15 18 - - -
13/07:30pm - - - - - WSW 26 30 14 16 - - -
13/07:00pm - - - - - WSW 28 32 15 17 - - -
13/06:30pm - - - - - WSW 41 61 22 33 - - -
13/06:29pm - - - - - WSW 39 61 21 33 - - -
13/06:00pm - - - - - W 39 48 21 26 - - -
13/05:30pm - - - - - WNW 39 50 21 27 - - -
13/05:00pm - - - - - WNW 30 39 16 21 - - -
13/04:30pm - - - - - W 30 37 16 20 - - -
13/04:19pm - - - - - W 43 54 23 29 - - -
13/04:12pm - - - - - W 57 76 31 41 - - -
13/04:04pm - - - - - WNW 48 76 26 41 - - -
13/04:02pm - - - - - WNW 41 59 22 32 - - -
13/04:00pm - - - - - WNW 39 48 21 26 - - -
13/03:30pm - - - - - WNW 33 37 18 20 - - -
13/03:00pm - - - - - WNW 39 50 21 27 - - -
13/02:30pm - - - - - WNW 43 54 23 29 - - -
13/02:00pm - - - - - NW 26 37 14 20 - - -
13/01:30pm - - - - - NNW 26 30 14 16 - - -
13/01:00pm - - - - - NNW 22 28 12 15 - - -
13/12:30pm - - - - - NW 43 76 23 41 - - -
13/12:27pm - - - - - NNW 54 78 29 42 - - -
13/12:12pm - - - - - N 59 78 32 42 - - -
13/12:00pm - - - - - N 61 74 33 40 - - -
13/11:41am - - - - - NNE 54 72 29 39 - - -
13/11:30am - - - - - NNE 52 69 28 37 - - -
13/11:00am - - - - - NNE 52 63 28 34 - - -
13/10:30am - - - - - NNE 56 72 30 39 - - -
13/10:01am - - - - - NNE 56 74 30 40 - - -
13/10:00am - - - - - NNE 56 67 30 36 - - -

Other formats

Comma delimited format used in spreadsheet applications
http://www.bom.gov.au/fwo/IDW60801/IDW60801.95602.axf

JavaScript Object Notation format (JSON) in row-major order
http://www.bom.gov.au/fwo/IDW60801/IDW60801.95602.json

Data quality

Most of these data are generated automatically and are frequently updated. Quality checks on data are not normally performed. It is possible for incorrect values to appear. Refer to information at About Latest Weather Observations and please check the disclaimer before using these data.